createdAt,value
2023-01-03T05:00:40.087Z,1011.89
2023-01-03T05:01:40.008Z,1011.89
2023-01-03T05:02:39.910Z,1011.84
2023-01-03T05:03:39.883Z,1011.88
2023-01-03T05:04:39.952Z,1011.84
2023-01-03T05:05:39.863Z,1011.89
2023-01-03T05:06:39.851Z,1011.90
2023-01-03T05:07:39.835Z,1011.94
2023-01-03T05:08:39.810Z,1011.93
2023-01-03T05:09:39.820Z,1011.95
2023-01-03T05:10:39.796Z,1011.94
2023-01-03T05:11:39.793Z,1011.98
2023-01-03T05:12:39.812Z,1011.97
2023-01-03T05:13:39.765Z,1011.97
2023-01-03T05:14:39.750Z,1011.95
2023-01-03T05:15:39.734Z,1011.96
2023-01-03T05:16:39.830Z,1011.98
2023-01-03T05:17:39.737Z,1011.97
2023-01-03T05:18:39.726Z,1011.97
2023-01-03T05:19:43.824Z,1011.99
2023-01-03T05:20:39.697Z,1011.95
2023-01-03T05:21:39.692Z,1011.95
2023-01-03T05:22:39.684Z,1011.98
2023-01-03T05:23:39.650Z,1011.96
2023-01-03T05:24:39.638Z,1011.98
2023-01-03T05:25:39.678Z,1011.95
2023-01-03T05:26:39.633Z,1011.98
2023-01-03T05:27:39.632Z,1011.98
2023-01-03T05:28:39.590Z,1011.98
2023-01-03T05:29:39.603Z,1011.95
2023-01-03T05:30:39.584Z,1011.97
2023-01-03T05:31:39.603Z,1011.97
2023-01-03T05:32:39.577Z,1011.95
2023-01-03T05:33:39.586Z,1011.99
2023-01-03T05:34:39.550Z,1011.99
2023-01-03T05:35:39.522Z,1011.91
2023-01-03T05:36:39.524Z,1011.97
2023-01-03T05:37:39.488Z,1011.94
2023-01-03T05:38:39.497Z,1011.92
2023-01-03T05:39:39.476Z,1011.88
2023-01-03T05:40:41.588Z,1011.92
2023-01-03T05:41:39.471Z,1011.93
2023-01-03T05:42:39.452Z,1011.91
2023-01-03T05:43:39.443Z,1011.92
2023-01-03T05:44:39.443Z,1011.93
2023-01-03T05:45:39.439Z,1011.92
2023-01-03T05:46:39.431Z,1012.00
2023-01-03T05:47:39.387Z,1012.00
2023-01-03T05:48:39.491Z,1011.99
2023-01-03T05:49:39.378Z,1011.97
2023-01-03T05:50:39.360Z,1011.97
2023-01-03T05:51:39.346Z,1011.96
2023-01-03T05:52:39.370Z,1011.97
2023-01-03T05:53:39.319Z,1011.97
2023-01-03T05:54:39.329Z,1011.96
2023-01-03T05:55:39.292Z,1011.94
2023-01-03T05:56:39.284Z,1011.93
2023-01-03T05:57:39.273Z,1011.89
2023-01-03T05:58:39.278Z,1011.91
2023-01-03T05:59:39.282Z,1011.93
2023-01-03T06:00:39.247Z,1011.90
2023-01-03T06:01:39.326Z,1011.87
2023-01-03T06:02:39.258Z,1011.90
2023-01-03T06:03:39.209Z,1011.91
2023-01-03T06:04:39.370Z,1011.96
2023-01-03T06:05:43.240Z,1011.95
2023-01-03T06:06:40.199Z,1011.95
2023-01-03T06:07:39.169Z,1011.99
2023-01-03T06:08:39.151Z,1011.97
2023-01-03T06:09:39.167Z,1012.00
2023-01-03T06:10:39.156Z,1011.99
2023-01-03T06:11:39.140Z,1011.98
2023-01-03T06:12:39.111Z,1012.05
2023-01-03T06:13:39.104Z,1012.04
2023-01-03T06:14:39.089Z,1011.99
2023-01-03T06:15:39.080Z,1012.00
2023-01-03T06:16:39.122Z,1012.02
2023-01-03T06:17:39.076Z,1012.02
2023-01-03T06:18:39.068Z,1011.99
2023-01-03T06:19:39.036Z,1012.06
2023-01-03T06:20:39.055Z,1012.07
2023-01-03T06:21:39.007Z,1012.08
2023-01-03T06:22:39.026Z,1012.05
2023-01-03T06:23:38.987Z,1012.06
2023-01-03T06:24:39.009Z,1012.00
2023-01-03T06:25:38.991Z,1012.04
2023-01-03T06:26:38.974Z,1012.06
2023-01-03T06:27:38.954Z,1012.04
2023-01-03T06:28:38.961Z,1012.03
2023-01-03T06:29:38.967Z,1012.04
2023-01-03T06:30:38.993Z,1012.05
2023-01-03T06:31:38.900Z,1012.02
2023-01-03T06:32:38.911Z,1012.02
2023-01-03T06:33:38.895Z,1012.00
2023-01-03T06:34:38.876Z,1012.02
2023-01-03T06:35:38.863Z,1012.03
2023-01-03T06:36:38.861Z,1012.03
2023-01-03T06:37:38.835Z,1012.08
2023-01-03T06:38:38.852Z,1012.03
2023-01-03T06:39:38.834Z,1012.08
2023-01-03T06:40:45.474Z,1012.09
2023-01-03T06:41:39.813Z,1012.09
2023-01-03T06:42:38.802Z,1012.07
2023-01-03T06:43:38.768Z,1012.06
2023-01-03T06:44:38.764Z,1012.08
2023-01-03T06:45:38.754Z,1012.11
2023-01-03T06:46:38.779Z,1012.07
2023-01-03T06:47:38.721Z,1012.11
2023-01-03T06:48:38.715Z,1012.12
2023-01-03T06:49:38.717Z,1012.10
2023-01-03T06:50:38.720Z,1012.15
2023-01-03T06:51:38.700Z,1012.11
2023-01-03T06:52:38.713Z,1012.14
2023-01-03T06:53:38.677Z,1012.14
2023-01-03T06:54:38.662Z,1012.18
2023-01-03T06:55:38.649Z,1012.20
2023-01-03T06:56:38.633Z,1012.25
2023-01-03T06:57:38.635Z,1012.21
2023-01-03T06:58:38.617Z,1012.24
2023-01-03T06:59:38.629Z,1012.23
2023-01-03T07:00:38.606Z,1012.17
2023-01-03T07:01:38.734Z,1012.20
2023-01-03T07:02:38.787Z,1012.19
2023-01-03T07:03:38.559Z,1012.22
2023-01-03T07:04:38.612Z,1012.26
2023-01-03T07:05:38.532Z,1012.23
2023-01-03T07:06:38.531Z,1012.20
2023-01-03T07:07:38.536Z,1012.23
2023-01-03T07:08:44.159Z,1012.22
2023-01-03T07:09:39.502Z,1012.26
2023-01-03T07:10:38.484Z,1012.24
2023-01-03T07:11:38.467Z,1012.25
2023-01-03T07:12:38.500Z,1012.26
2023-01-03T07:13:38.444Z,1012.27
2023-01-03T07:14:38.476Z,1012.23
2023-01-03T07:15:38.483Z,1012.24
2023-01-03T07:16:38.451Z,1012.23
2023-01-03T07:17:38.441Z,1012.23
2023-01-03T07:18:38.394Z,1012.28
2023-01-03T07:19:38.394Z,1012.25
2023-01-03T07:20:38.400Z,1012.29
2023-01-03T07:21:38.367Z,1012.29
2023-01-03T07:22:38.355Z,1012.28
2023-01-03T07:23:38.360Z,1012.29
2023-01-03T07:24:38.365Z,1012.29
2023-01-03T07:25:38.328Z,1012.33
2023-01-03T07:26:38.322Z,1012.35
2023-01-03T07:27:38.315Z,1012.39
2023-01-03T07:28:38.308Z,1012.40
2023-01-03T07:29:38.303Z,1012.40
2023-01-03T07:30:38.264Z,1012.49
2023-01-03T07:31:38.287Z,1012.44
2023-01-03T07:32:38.252Z,1012.47
2023-01-03T07:33:38.235Z,1012.46
2023-01-03T07:34:38.237Z,1012.44
2023-01-03T07:35:38.232Z,1012.52
2023-01-03T07:36:38.195Z,1012.52
2023-01-03T07:37:38.183Z,1012.55
2023-01-03T07:38:38.181Z,1012.55
2023-01-03T07:39:38.179Z,1012.52
2023-01-03T07:40:38.184Z,1012.54
2023-01-03T07:41:38.144Z,1012.50
2023-01-03T07:42:38.146Z,1012.53
2023-01-03T07:43:38.155Z,1012.51
2023-01-03T07:44:38.119Z,1012.54
2023-01-03T07:45:38.122Z,1012.52
2023-01-03T07:46:38.209Z,1012.55
2023-01-03T07:47:38.078Z,1012.53
2023-01-03T07:48:38.080Z,1012.57
2023-01-03T07:49:38.063Z,1012.61
2023-01-03T07:50:38.043Z,1012.57
2023-01-03T07:51:38.066Z,1012.56
2023-01-03T07:52:38.045Z,1012.56
2023-01-03T07:53:38.016Z,1012.60
2023-01-03T07:54:38.016Z,1012.59
2023-01-03T07:55:37.989Z,1012.58
2023-01-03T07:56:38.010Z,1012.59
2023-01-03T07:57:37.994Z,1012.56
2023-01-03T07:58:37.977Z,1012.53
2023-01-03T07:59:37.970Z,1012.57
2023-01-03T08:00:37.940Z,1012.55
2023-01-03T08:01:38.156Z,1012.54
2023-01-03T08:02:38.098Z,1012.54
2023-01-03T08:03:37.905Z,1012.57
2023-01-03T08:04:38.008Z,1012.55
2023-01-03T08:05:37.892Z,1012.56
2023-01-03T08:06:37.876Z,1012.62
2023-01-03T08:07:37.889Z,1012.55
2023-01-03T08:08:37.845Z,1012.54
2023-01-03T08:09:37.865Z,1012.52
2023-01-03T08:10:37.844Z,1012.50
2023-01-03T08:11:37.835Z,1012.53
2023-01-03T08:12:37.814Z,1012.51
2023-01-03T08:13:37.797Z,1012.56
2023-01-03T08:14:37.798Z,1012.59
2023-01-03T08:15:37.843Z,1012.59
2023-01-03T08:16:37.805Z,1012.62
2023-01-03T08:17:37.754Z,1012.64
2023-01-03T08:18:37.741Z,1012.64
2023-01-03T08:19:43.546Z,1012.59
2023-01-03T08:20:38.712Z,1012.66
2023-01-03T08:21:37.723Z,1012.67
2023-01-03T08:22:37.686Z,1012.67
2023-01-03T08:23:37.687Z,1012.73
2023-01-03T08:24:37.687Z,1012.74
2023-01-03T08:25:37.665Z,1012.76
2023-01-03T08:26:37.662Z,1012.77
2023-01-03T08:27:37.651Z,1012.73
2023-01-03T08:28:37.662Z,1012.77
2023-01-03T08:29:37.625Z,1012.78
2023-01-03T08:30:37.603Z,1012.78
2023-01-03T08:31:37.687Z,1012.79
2023-01-03T08:32:37.583Z,1012.83
2023-01-03T08:33:37.579Z,1012.79
2023-01-03T08:34:37.582Z,1012.79
2023-01-03T08:35:37.575Z,1012.85
2023-01-03T08:36:37.563Z,1012.83
2023-01-03T08:37:37.529Z,1012.81
2023-01-03T08:38:37.516Z,1012.83
2023-01-03T08:39:37.524Z,1012.84
2023-01-03T08:40:41.870Z,1012.81
2023-01-03T08:41:38.488Z,1012.77
2023-01-03T08:42:37.474Z,1012.79
2023-01-03T08:43:37.484Z,1012.78
2023-01-03T08:44:37.487Z,1012.79
2023-01-03T08:45:37.444Z,1012.75
2023-01-03T08:46:37.485Z,1012.75
2023-01-03T08:47:37.441Z,1012.77
2023-01-03T08:48:37.436Z,1012.77
2023-01-03T08:49:37.401Z,1012.79
2023-01-03T08:50:37.391Z,1012.81
2023-01-03T08:51:37.384Z,1012.84
2023-01-03T08:52:37.376Z,1012.78
2023-01-03T08:53:37.433Z,1012.86
2023-01-03T08:54:37.421Z,1012.83
2023-01-03T08:55:37.345Z,1012.78
2023-01-03T08:56:37.329Z,1012.85
2023-01-03T08:57:37.327Z,1012.86
2023-01-03T08:58:37.322Z,1012.84
2023-01-03T08:59:37.288Z,1012.86
2023-01-03T09:00:37.300Z,1012.85
2023-01-03T09:01:37.390Z,1012.81
2023-01-03T09:02:37.414Z,1012.83
2023-01-03T09:03:37.489Z,1012.84
2023-01-03T09:04:37.242Z,1012.87
2023-01-03T09:05:37.223Z,1012.86
2023-01-03T09:06:37.221Z,1012.82
2023-01-03T09:07:37.223Z,1012.83
2023-01-03T09:08:37.201Z,1012.87
2023-01-03T09:09:37.209Z,1012.92
2023-01-03T09:10:39.682Z,1012.94
2023-01-03T09:11:38.175Z,1012.88
2023-01-03T09:12:37.148Z,1012.86
2023-01-03T09:13:37.171Z,1012.91
2023-01-03T09:14:37.207Z,1012.95
2023-01-03T09:15:37.115Z,1012.97
2023-01-03T09:16:37.206Z,1012.94
2023-01-03T09:17:37.134Z,1012.87
2023-01-03T09:18:37.088Z,1012.94
2023-01-03T09:19:37.076Z,1012.97
2023-01-03T09:20:37.074Z,1012.94
2023-01-03T09:21:37.074Z,1012.86
2023-01-03T09:22:37.072Z,1012.89
2023-01-03T09:23:37.039Z,1012.87
2023-01-03T09:24:37.042Z,1012.92
2023-01-03T09:25:37.783Z,1012.87
2023-01-03T09:26:36.998Z,1012.90
2023-01-03T09:27:37.000Z,1012.91
2023-01-03T09:28:36.973Z,1012.86
2023-01-03T09:29:36.993Z,1012.85
2023-01-03T09:30:36.975Z,1012.87
2023-01-03T09:31:40.042Z,1012.88
2023-01-03T09:32:36.943Z,1012.88
2023-01-03T09:33:36.922Z,1012.91
2023-01-03T09:34:36.938Z,1012.93
2023-01-03T09:35:36.937Z,1012.92
2023-01-03T09:36:36.881Z,1012.87
2023-01-03T09:37:36.901Z,1012.93
2023-01-03T09:38:36.894Z,1012.91
2023-01-03T09:39:36.885Z,1012.97
2023-01-03T09:40:36.867Z,1013.01
2023-01-03T09:41:36.876Z,1013.02
2023-01-03T09:42:36.840Z,1013.02
2023-01-03T09:43:36.860Z,1012.95
2023-01-03T09:44:36.808Z,1013.05
2023-01-03T09:45:36.847Z,1012.99
2023-01-03T09:46:36.897Z,1013.05
2023-01-03T09:47:36.782Z,1013.03
2023-01-03T09:48:36.778Z,1013.04
2023-01-03T09:49:36.777Z,1013.06
2023-01-03T09:50:57.266Z,1013.04
2023-01-03T09:51:37.739Z,1013.00
2023-01-03T09:52:36.742Z,1013.04
2023-01-03T09:53:36.730Z,1013.00
2023-01-03T09:54:36.705Z,1012.97
2023-01-03T09:55:36.697Z,1012.99
2023-01-03T09:56:36.679Z,1012.92
2023-01-03T09:57:36.678Z,1012.93
2023-01-03T09:58:36.661Z,1012.89
2023-01-03T09:59:36.666Z,1012.88
2023-01-03T10:00:36.708Z,1012.84
2023-01-03T10:01:36.710Z,1012.84
2023-01-03T10:02:36.728Z,1012.87
2023-01-03T10:03:36.654Z,1012.89
2023-01-03T10:04:36.601Z,1012.82
2023-01-03T10:05:36.594Z,1012.89
2023-01-03T10:06:36.582Z,1012.78
2023-01-03T10:07:36.568Z,1012.79
2023-01-03T10:08:36.587Z,1012.77
2023-01-03T10:09:36.556Z,1012.77
2023-01-03T10:10:36.564Z,1012.81
2023-01-03T10:11:36.523Z,1012.76
2023-01-03T10:12:36.534Z,1012.76
2023-01-03T10:13:36.503Z,1012.74
2023-01-03T10:14:36.504Z,1012.74
2023-01-03T10:15:36.457Z,1012.78
2023-01-03T10:16:36.488Z,1012.76
2023-01-03T10:17:36.457Z,1012.70
2023-01-03T10:18:36.457Z,1012.72
2023-01-03T10:19:36.448Z,1012.75
2023-01-03T10:20:36.502Z,1012.80
2023-01-03T10:21:36.409Z,1012.80
2023-01-03T10:22:36.447Z,1012.78
2023-01-03T10:23:36.376Z,1012.77
2023-01-03T10:24:36.365Z,1012.81
2023-01-03T10:25:36.408Z,1012.81
2023-01-03T10:26:36.387Z,1012.82
2023-01-03T10:27:36.363Z,1012.78
2023-01-03T10:28:36.371Z,1012.79
2023-01-03T10:29:36.314Z,1012.85
2023-01-03T10:30:36.320Z,1012.77
2023-01-03T10:31:36.329Z,1012.74
2023-01-03T10:32:36.382Z,1012.75
2023-01-03T10:33:36.252Z,1012.72
2023-01-03T10:34:36.290Z,1012.70
2023-01-03T10:35:36.253Z,1012.74
2023-01-03T10:36:36.262Z,1012.77
2023-01-03T10:37:36.462Z,1012.73
2023-01-03T10:38:43.524Z,1012.72
2023-01-03T10:39:37.247Z,1012.80
2023-01-03T10:40:36.199Z,1012.81
2023-01-03T10:41:36.220Z,1012.80
2023-01-03T10:42:36.211Z,1012.75
2023-01-03T10:43:36.147Z,1012.76
2023-01-03T10:44:36.144Z,1012.67
2023-01-03T10:45:42.728Z,1012.75
2023-01-03T10:46:37.153Z,1012.75
2023-01-03T10:47:36.111Z,1012.77
2023-01-03T10:48:52.615Z,1012.77
2023-01-03T10:49:37.132Z,1012.70
2023-01-03T10:50:36.104Z,1012.66
2023-01-03T10:51:42.557Z,1012.64
2023-01-03T10:52:37.073Z,1012.65
2023-01-03T10:53:36.069Z,1012.65
2023-01-03T10:54:36.096Z,1012.60
2023-01-03T10:55:36.054Z,1012.56
2023-01-03T10:56:36.019Z,1012.62
2023-01-03T10:57:36.020Z,1012.58
2023-01-03T10:58:36.659Z,1012.57
2023-01-03T10:59:35.983Z,1012.61
2023-01-03T11:00:36.064Z,1012.61
2023-01-03T11:01:36.111Z,1012.59
2023-01-03T11:02:36.177Z,1012.57
2023-01-03T11:03:36.004Z,1012.54
2023-01-03T11:04:35.928Z,1012.57
2023-01-03T11:05:35.922Z,1012.57
2023-01-03T11:06:35.915Z,1012.53
2023-01-03T11:07:35.904Z,1012.55
2023-01-03T11:08:35.964Z,1012.56
2023-01-03T11:09:35.866Z,1012.55
2023-01-03T11:10:35.886Z,1012.58
2023-01-03T11:11:35.842Z,1012.57
2023-01-03T11:12:35.834Z,1012.54
2023-01-03T11:13:35.907Z,1012.56
2023-01-03T11:14:35.835Z,1012.56
2023-01-03T11:15:38.792Z,1012.55
2023-01-03T11:16:35.857Z,1012.57
2023-01-03T11:17:35.810Z,1012.55
2023-01-03T11:18:35.802Z,1012.56
2023-01-03T11:19:35.769Z,1012.55
2023-01-03T11:20:35.796Z,1012.51
2023-01-03T11:21:35.737Z,1012.53
2023-01-03T11:22:37.961Z,1012.55
2023-01-03T11:23:35.765Z,1012.53
2023-01-03T11:24:35.776Z,1012.51
2023-01-03T11:25:35.817Z,1012.54
2023-01-03T11:26:35.680Z,1012.55
2023-01-03T11:27:35.739Z,1012.56
2023-01-03T11:28:36.220Z,1012.53
2023-01-03T11:29:35.996Z,1012.54
2023-01-03T11:30:35.766Z,1012.58
2023-01-03T11:31:35.795Z,1012.57
2023-01-03T11:32:35.677Z,1012.54
2023-01-03T11:33:36.081Z,1012.50
2023-01-03T11:35:11.609Z,1012.53
2023-01-03T11:35:36.973Z,1012.54
2023-01-03T11:36:35.794Z,1012.51
2023-01-03T11:37:35.603Z,1012.55
2023-01-03T11:38:35.596Z,1012.54
2023-01-03T11:39:35.603Z,1012.55
2023-01-03T11:40:35.590Z,1012.56
2023-01-03T11:41:35.513Z,1012.54
2023-01-03T11:42:35.508Z,1012.53
2023-01-03T11:43:35.490Z,1012.55
2023-01-03T11:44:35.524Z,1012.46
2023-01-03T11:45:35.534Z,1012.49
2023-01-03T11:46:35.589Z,1012.51
2023-01-03T11:47:35.465Z,1012.46
2023-01-03T11:48:35.447Z,1012.42
2023-01-03T11:49:35.445Z,1012.46
2023-01-03T11:50:35.431Z,1012.41
2023-01-03T11:51:35.403Z,1012.44
2023-01-03T11:52:35.418Z,1012.37
2023-01-03T11:53:35.395Z,1012.32
2023-01-03T11:54:35.403Z,1012.28
2023-01-03T11:55:35.362Z,1012.31
2023-01-03T11:56:35.408Z,1012.31
2023-01-03T11:57:35.348Z,1012.28
2023-01-03T11:58:35.334Z,1012.28
2023-01-03T11:59:35.336Z,1012.20
2023-01-03T12:00:35.339Z,1012.18
2023-01-03T12:01:39.303Z,1012.17
2023-01-03T12:02:35.336Z,1012.20
2023-01-03T12:03:35.446Z,1012.16
2023-01-03T12:04:35.410Z,1012.16
2023-01-03T12:05:35.277Z,1012.13
2023-01-03T12:06:35.257Z,1012.14
2023-01-03T12:07:47.748Z,1012.13
2023-01-03T12:08:36.219Z,1012.12
2023-01-03T12:09:35.205Z,1012.03
2023-01-03T12:10:35.221Z,1012.07
2023-01-03T12:11:35.182Z,1012.08
2023-01-03T12:12:35.211Z,1012.06
2023-01-03T12:13:35.166Z,1012.05
2023-01-03T12:14:35.170Z,1012.04
2023-01-03T12:15:35.234Z,1012.04
2023-01-03T12:16:35.192Z,1012.00
2023-01-03T12:17:35.144Z,1011.98
2023-01-03T12:18:35.116Z,1011.93
2023-01-03T12:19:35.128Z,1011.95
2023-01-03T12:20:35.087Z,1011.90
2023-01-03T12:21:35.092Z,1011.94
2023-01-03T12:22:35.096Z,1011.94
2023-01-03T12:23:35.063Z,1011.89
2023-01-03T12:24:35.080Z,1011.91
2023-01-03T12:25:35.034Z,1011.85
2023-01-03T12:26:35.023Z,1011.90
2023-01-03T12:27:35.034Z,1011.93
2023-01-03T12:28:35.013Z,1011.92
2023-01-03T12:29:34.988Z,1011.91
2023-01-03T12:30:34.980Z,1011.84
2023-01-03T12:31:35.057Z,1011.86
2023-01-03T12:32:35.048Z,1011.84
2023-01-03T12:33:34.947Z,1011.81
2023-01-03T12:34:34.944Z,1011.81
2023-01-03T12:35:34.958Z,1011.82
2023-01-03T12:36:34.923Z,1011.82
2023-01-03T12:37:34.916Z,1011.81
2023-01-03T12:38:34.901Z,1011.79
2023-01-03T12:39:34.893Z,1011.82
2023-01-03T12:40:34.915Z,1011.85
2023-01-03T12:41:34.858Z,1011.84
2023-01-03T12:42:34.847Z,1011.83
2023-01-03T12:43:34.826Z,1011.84
2023-01-03T12:44:34.837Z,1011.97
2023-01-03T12:45:34.983Z,1011.86
2023-01-03T12:46:34.845Z,1011.85
2023-01-03T12:47:34.791Z,1011.82
2023-01-03T12:48:34.818Z,1011.80
2023-01-03T12:49:34.776Z,1011.82
2023-01-03T12:50:34.778Z,1011.82
2023-01-03T12:51:34.760Z,1011.76
2023-01-03T12:52:34.767Z,1011.80
2023-01-03T12:53:34.723Z,1011.74
2023-01-03T12:54:34.717Z,1011.72
2023-01-03T12:55:34.705Z,1011.72
2023-01-03T12:56:34.715Z,1011.70
2023-01-03T12:57:34.689Z,1011.72
2023-01-03T12:58:39.218Z,1011.69
2023-01-03T12:59:35.667Z,1011.71
2023-01-03T13:00:34.683Z,1011.73
2023-01-03T13:01:34.809Z,1011.70
2023-01-03T13:02:35.071Z,1011.67
2023-01-03T13:03:34.737Z,1011.67
2023-01-03T13:04:34.644Z,1011.62
2023-01-03T13:05:34.631Z,1011.58
2023-01-03T13:06:34.582Z,1011.60
2023-01-03T13:07:34.594Z,1011.57
2023-01-03T13:08:34.654Z,1011.61
2023-01-03T13:09:34.563Z,1011.61
2023-01-03T13:10:35.390Z,1011.62
2023-01-03T13:11:34.565Z,1011.60
2023-01-03T13:12:34.529Z,1011.55
2023-01-03T13:13:34.536Z,1011.61
2023-01-03T13:14:34.504Z,1011.58
2023-01-03T13:15:37.214Z,1011.56
2023-01-03T13:16:34.629Z,1011.55
2023-01-03T13:17:34.479Z,1011.51
2023-01-03T13:18:34.461Z,1011.60
2023-01-03T13:19:34.445Z,1011.57
2023-01-03T13:20:34.459Z,1011.60
2023-01-03T13:21:34.414Z,1011.59
2023-01-03T13:22:34.504Z,1011.66
2023-01-03T13:23:34.398Z,1011.61
2023-01-03T13:24:34.421Z,1011.60
2023-01-03T13:25:34.382Z,1011.62
2023-01-03T13:26:34.374Z,1011.59
2023-01-03T13:27:34.352Z,1011.58
2023-01-03T13:28:34.417Z,1011.62
2023-01-03T13:29:34.359Z,1011.64
2023-01-03T13:30:34.335Z,1011.58
2023-01-03T13:31:34.460Z,1011.58
2023-01-03T13:32:38.253Z,1011.57
2023-01-03T13:33:34.300Z,1011.66
2023-01-03T13:34:34.287Z,1011.64
2023-01-03T13:35:34.274Z,1011.62
2023-01-03T13:36:34.263Z,1011.64
2023-01-03T13:37:34.284Z,1011.61
2023-01-03T13:38:34.237Z,1011.58
2023-01-03T13:39:34.240Z,1011.63
2023-01-03T13:41:15.537Z,1011.61
2023-01-03T13:41:35.212Z,1011.59
2023-01-03T13:42:34.214Z,1011.55
2023-01-03T13:43:39.546Z,1011.63
2023-01-03T13:44:35.175Z,1011.58
2023-01-03T13:45:34.169Z,1011.62
2023-01-03T13:46:34.233Z,1011.60
2023-01-03T13:47:34.149Z,1011.58
2023-01-03T13:48:34.178Z,1011.63
2023-01-03T13:49:34.119Z,1011.64
2023-01-03T13:50:34.105Z,1011.63
2023-01-03T13:51:34.117Z,1011.61
2023-01-03T13:52:34.098Z,1011.58
2023-01-03T13:53:34.075Z,1011.63
2023-01-03T13:54:34.089Z,1011.61
2023-01-03T13:55:34.052Z,1011.65
2023-01-03T13:56:34.062Z,1011.59
2023-01-03T13:57:34.023Z,1011.64
2023-01-03T13:58:34.013Z,1011.62
2023-01-03T13:59:34.044Z,1011.64
2023-01-03T14:00:34.016Z,1011.67
2023-01-03T14:01:34.090Z,1011.59
2023-01-03T14:02:34.172Z,1011.62
2023-01-03T14:03:34.161Z,1011.63
2023-01-03T14:04:33.974Z,1011.62
2023-01-03T14:05:33.963Z,1011.59
2023-01-03T14:06:33.959Z,1011.65
2023-01-03T14:07:33.921Z,1011.65
2023-01-03T14:08:35.769Z,1011.63
2023-01-03T14:09:33.891Z,1011.62
2023-01-03T14:10:33.912Z,1011.66
2023-01-03T14:11:33.885Z,1011.61
2023-01-03T14:12:33.862Z,1011.66
2023-01-03T14:13:33.879Z,1011.64
2023-01-03T14:14:33.857Z,1011.66
2023-01-03T14:15:33.848Z,1011.73
2023-01-03T14:16:33.875Z,1011.69
2023-01-03T14:17:33.813Z,1011.71
2023-01-03T14:18:33.836Z,1011.70
2023-01-03T14:19:33.804Z,1011.71
2023-01-03T14:20:33.806Z,1011.71
2023-01-03T14:21:33.785Z,1011.74
2023-01-03T14:22:33.755Z,1011.81
2023-01-03T14:23:59.823Z,1011.76
2023-01-03T14:24:34.760Z,1011.81
2023-01-03T14:25:33.727Z,1011.83
2023-01-03T14:26:33.732Z,1011.84
2023-01-03T14:27:33.716Z,1011.76
2023-01-03T14:28:33.767Z,1011.77
2023-01-03T14:29:33.676Z,1011.80
2023-01-03T14:30:33.662Z,1011.79
2023-01-03T14:31:33.782Z,1011.82
2023-01-03T14:32:34.869Z,1011.79
2023-01-03T14:33:33.649Z,1011.81
2023-01-03T14:34:33.630Z,1011.85
2023-01-03T14:35:33.613Z,1011.85
2023-01-03T14:36:33.635Z,1011.90
2023-01-03T14:37:33.584Z,1011.84
2023-01-03T14:38:33.591Z,1011.81
2023-01-03T14:40:03.425Z,1011.91
2023-01-03T14:41:03.412Z,1011.84
2023-01-03T14:42:03.408Z,1011.85
2023-01-03T14:43:03.431Z,1011.79
2023-01-03T14:44:03.385Z,1011.84
2023-01-03T14:45:03.386Z,1011.84
2023-01-03T14:46:03.382Z,1011.86
2023-01-03T14:47:03.376Z,1011.87
2023-01-03T14:48:03.324Z,1011.92
2023-01-03T14:49:04.109Z,1011.90
2023-01-03T14:50:03.338Z,1011.90
2023-01-03T14:51:03.318Z,1011.91
2023-01-03T14:52:03.293Z,1011.97
2023-01-03T14:53:03.285Z,1011.92
2023-01-03T14:54:03.287Z,1011.98
2023-01-03T14:55:04.425Z,1012.02
2023-01-03T14:56:03.275Z,1012.01
2023-01-03T14:57:03.237Z,1012.05
2023-01-03T14:58:03.240Z,1011.99
2023-01-03T14:59:03.243Z,1012.00
2023-01-03T15:00:03.217Z,1012.01
2023-01-03T15:01:03.255Z,1011.99
2023-01-03T15:02:03.422Z,1012.03
2023-01-03T15:03:03.376Z,1011.97
2023-01-03T15:04:03.162Z,1011.95
2023-01-03T15:05:03.149Z,1011.96
2023-01-03T15:06:03.139Z,1011.95
2023-01-03T15:07:09.646Z,1011.98
2023-01-03T15:08:04.145Z,1011.97
2023-01-03T15:09:03.096Z,1011.96
2023-01-03T15:10:03.199Z,1011.91
2023-01-03T15:11:03.066Z,1011.96
2023-01-03T15:12:03.076Z,1011.88
2023-01-03T15:13:05.232Z,1011.93
2023-01-03T15:14:03.119Z,1011.91
2023-01-03T15:15:03.107Z,1011.90
2023-01-03T15:16:03.098Z,1011.88
2023-01-03T15:17:03.069Z,1011.91
2023-01-03T15:18:03.030Z,1011.95
2023-01-03T15:19:03.030Z,1011.93
2023-01-03T15:20:03.048Z,1011.88
2023-01-03T15:21:02.957Z,1011.97
2023-01-03T15:22:03.015Z,1011.96
2023-01-03T15:23:02.943Z,1011.97
2023-01-03T15:24:02.943Z,1012.01
2023-01-03T15:25:02.973Z,1012.05
2023-01-03T15:26:02.915Z,1012.03
2023-01-03T15:27:02.910Z,1012.07
2023-01-03T15:28:02.932Z,1012.13
2023-01-03T15:29:02.892Z,1012.10
2023-01-03T15:30:02.968Z,1012.15
2023-01-03T15:31:02.853Z,1012.05
2023-01-03T15:32:02.922Z,1012.11
2023-01-03T15:33:02.861Z,1012.20
2023-01-03T15:34:02.843Z,1012.17
2023-01-03T15:35:02.829Z,1012.18
2023-01-03T15:36:02.821Z,1012.16
2023-01-03T15:37:02.813Z,1012.16
2023-01-03T15:38:02.819Z,1012.24
2023-01-03T15:39:02.796Z,1012.20
2023-01-03T15:40:02.880Z,1012.22
2023-01-03T15:41:02.766Z,1012.20
2023-01-03T15:43:03.737Z,1012.18
2023-01-03T15:44:02.818Z,1012.21
2023-01-03T15:45:02.701Z,1012.16
2023-01-03T15:46:02.826Z,1012.22
2023-01-03T15:47:02.667Z,1012.22
2023-01-03T15:48:04.958Z,1012.21
2023-01-03T15:49:02.701Z,1012.17
2023-01-03T15:50:02.645Z,1012.17
2023-01-03T15:51:02.634Z,1012.19
2023-01-03T15:52:02.639Z,1012.15
2023-01-03T15:53:02.632Z,1012.21
2023-01-03T15:54:02.612Z,1012.17
2023-01-03T15:55:02.590Z,1012.19
2023-01-03T15:56:02.622Z,1012.20
2023-01-03T15:57:02.571Z,1012.18
2023-01-03T15:58:02.573Z,1012.19
2023-01-03T15:59:02.541Z,1012.20
2023-01-03T16:00:02.577Z,1012.15
2023-01-03T16:01:02.595Z,1012.19
2023-01-03T16:02:02.752Z,1012.16
2023-01-03T16:03:02.675Z,1012.19
2023-01-03T16:04:02.526Z,1012.17
2023-01-03T16:05:02.483Z,1012.14
2023-01-03T16:06:02.471Z,1012.17
2023-01-03T16:07:02.450Z,1012.18
2023-01-03T16:08:02.497Z,1012.18
2023-01-03T16:09:02.479Z,1012.15
2023-01-03T16:10:02.429Z,1012.15
2023-01-03T16:11:02.437Z,1012.17
2023-01-03T16:12:02.421Z,1012.12
2023-01-03T16:13:02.391Z,1012.15
2023-01-03T16:14:02.388Z,1012.09
2023-01-03T16:15:02.383Z,1012.12
2023-01-03T16:16:02.503Z,1012.17
2023-01-03T16:17:02.421Z,1012.20
2023-01-03T16:18:02.342Z,1012.11
2023-01-03T16:19:02.327Z,1012.14
2023-01-03T16:20:02.332Z,1012.16
2023-01-03T16:21:02.327Z,1012.18
2023-01-03T16:22:33.293Z,1012.17
2023-01-03T16:23:03.322Z,1012.16
2023-01-03T16:24:02.300Z,1012.15
2023-01-03T16:25:02.289Z,1012.18
2023-01-03T16:26:02.278Z,1012.16
2023-01-03T16:27:02.247Z,1012.14
2023-01-03T16:28:05.742Z,1012.12
2023-01-03T16:29:03.251Z,1012.11
2023-01-03T16:30:02.216Z,1012.13
2023-01-03T16:31:02.257Z,1012.15
2023-01-03T16:32:02.308Z,1012.13
2023-01-03T16:33:02.193Z,1012.15
2023-01-03T16:34:02.175Z,1012.12
2023-01-03T16:35:02.172Z,1012.13
2023-01-03T16:36:02.158Z,1012.15
2023-01-03T16:37:02.156Z,1012.11
2023-01-03T16:38:02.154Z,1012.09
2023-01-03T16:39:02.142Z,1012.10
2023-01-03T16:40:02.111Z,1012.09
2023-01-03T16:41:02.124Z,1012.10
2023-01-03T16:42:02.083Z,1012.12
2023-01-03T16:43:02.114Z,1012.08
2023-01-03T16:44:02.100Z,1012.06
2023-01-03T16:45:02.063Z,1012.06
2023-01-03T16:46:02.098Z,1012.09
2023-01-03T16:47:02.033Z,1012.08
2023-01-03T16:48:02.042Z,1012.10
2023-01-03T16:49:02.012Z,1012.09
2023-01-03T16:50:02.049Z,1012.10
2023-01-03T16:51:01.978Z,1012.11
2023-01-03T16:52:01.970Z,1012.16
2023-01-03T16:53:01.961Z,1012.08
2023-01-03T16:54:01.984Z,1012.12
2023-01-03T16:55:01.939Z,1012.12
2023-01-03T16:56:01.968Z,1012.11
2023-01-03T16:57:01.928Z,1012.06
2023-01-03T16:58:01.916Z,1012.07
2023-01-03T16:59:01.892Z,1012.04
2023-01-03T17:00:01.893Z,1012.08
2023-01-03T17:01:01.945Z,1012.06
2023-01-03T17:02:02.067Z,1012.02
2023-01-03T17:03:02.131Z,1012.05
2023-01-03T17:04:01.946Z,1012.04
2023-01-03T17:05:01.823Z,1012.03
2023-01-03T17:06:01.874Z,1012.05
2023-01-03T17:07:01.809Z,1012.03